sensor_id;sensor_type;location;lat;lon;timestamp;P1;durP1;ratioP1;P2;durP2;ratioP2
29774;SDS011;16676;51.202;6.774;2024-01-07T00:02:09;7.30;;;4.68;;
29774;SDS011;16676;51.202;6.774;2024-01-07T00:06:11;4.72;;;3.95;;
29774;SDS011;16676;51.202;6.774;2024-01-07T00:10:13;5.78;;;4.60;;
29774;SDS011;16676;51.202;6.774;2024-01-07T00:14:17;7.25;;;4.47;;
29774;SDS011;16676;51.202;6.774;2024-01-07T00:18:19;5.10;;;4.20;;
29774;SDS011;16676;51.202;6.774;2024-01-07T00:22:20;4.53;;;4.00;;
29774;SDS011;16676;51.202;6.774;2024-01-07T00:26:22;5.50;;;3.95;;
29774;SDS011;16676;51.202;6.774;2024-01-07T00:30:25;5.10;;;4.03;;
29774;SDS011;16676;51.202;6.774;2024-01-07T00:34:27;5.32;;;4.10;;
29774;SDS011;16676;51.202;6.774;2024-01-07T00:38:29;6.20;;;4.05;;
29774;SDS011;16676;51.202;6.774;2024-01-07T00:42:31;5.45;;;4.20;;
29774;SDS011;16676;51.202;6.774;2024-01-07T00:46:34;6.32;;;4.50;;
29774;SDS011;16676;51.202;6.774;2024-01-07T00:50:36;5.40;;;4.05;;
29774;SDS011;16676;51.202;6.774;2024-01-07T00:54:38;4.55;;;3.67;;
29774;SDS011;16676;51.202;6.774;2024-01-07T00:58:40;5.88;;;3.70;;
29774;SDS011;16676;51.202;6.774;2024-01-07T01:02:43;4.15;;;3.75;;
29774;SDS011;16676;51.202;6.774;2024-01-07T01:06:45;4.82;;;4.32;;
29774;SDS011;16676;51.202;6.774;2024-01-07T01:10:47;7.78;;;4.95;;
29774;SDS011;16676;51.202;6.774;2024-01-07T01:14:49;5.28;;;4.05;;
29774;SDS011;16676;51.202;6.774;2024-01-07T01:18:52;6.97;;;4.60;;
29774;SDS011;16676;51.202;6.774;2024-01-07T01:22:54;6.47;;;4.75;;
29774;SDS011;16676;51.202;6.774;2024-01-07T01:26:56;4.40;;;3.70;;
29774;SDS011;16676;51.202;6.774;2024-01-07T01:30:58;4.47;;;3.60;;
29774;SDS011;16676;51.202;6.774;2024-01-07T01:35:01;6.40;;;4.05;;
29774;SDS011;16676;51.202;6.774;2024-01-07T01:39:03;5.00;;;3.95;;
29774;SDS011;16676;51.202;6.774;2024-01-07T01:43:05;5.85;;;4.45;;
29774;SDS011;16676;51.202;6.774;2024-01-07T01:47:07;5.50;;;3.90;;
29774;SDS011;16676;51.202;6.774;2024-01-07T01:51:11;5.47;;;4.15;;
29774;SDS011;16676;51.202;6.774;2024-01-07T01:55:13;4.07;;;3.67;;
29774;SDS011;16676;51.202;6.774;2024-01-07T01:59:15;8.02;;;4.43;;
29774;SDS011;16676;51.202;6.774;2024-01-07T02:03:18;4.07;;;3.38;;
29774;SDS011;16676;51.202;6.774;2024-01-07T02:07:21;4.60;;;3.85;;
29774;SDS011;16676;51.202;6.774;2024-01-07T02:11:23;4.50;;;3.63;;
29774;SDS011;16676;51.202;6.774;2024-01-07T02:15:25;5.00;;;3.97;;
29774;SDS011;16676;51.202;6.774;2024-01-07T02:19:27;4.75;;;3.88;;
29774;SDS011;16676;51.202;6.774;2024-01-07T02:23:30;4.82;;;4.05;;
29774;SDS011;16676;51.202;6.774;2024-01-07T02:27:33;4.43;;;3.83;;
29774;SDS011;16676;51.202;6.774;2024-01-07T02:31:35;3.75;;;3.13;;
29774;SDS011;16676;51.202;6.774;2024-01-07T02:35:37;4.53;;;3.85;;
29774;SDS011;16676;51.202;6.774;2024-01-07T02:39:39;3.88;;;3.50;;
29774;SDS011;16676;51.202;6.774;2024-01-07T02:43:42;4.35;;;3.33;;
29774;SDS011;16676;51.202;6.774;2024-01-07T02:47:44;3.40;;;3.10;;
29774;SDS011;16676;51.202;6.774;2024-01-07T02:51:46;4.57;;;3.20;;
29774;SDS011;16676;51.202;6.774;2024-01-07T02:55:49;3.92;;;3.40;;
29774;SDS011;16676;51.202;6.774;2024-01-07T02:59:52;4.03;;;3.38;;
29774;SDS011;16676;51.202;6.774;2024-01-07T03:03:54;6.07;;;3.65;;
29774;SDS011;16676;51.202;6.774;2024-01-07T03:07:56;3.53;;;2.90;;
29774;SDS011;16676;51.202;6.774;2024-01-07T03:11:58;3.88;;;3.40;;
29774;SDS011;16676;51.202;6.774;2024-01-07T03:16:01;3.95;;;3.10;;
29774;SDS011;16676;51.202;6.774;2024-01-07T03:20:03;4.65;;;3.30;;
29774;SDS011;16676;51.202;6.774;2024-01-07T03:24:06;4.15;;;2.97;;
29774;SDS011;16676;51.202;6.774;2024-01-07T03:28:08;4.40;;;3.10;;
29774;SDS011;16676;51.202;6.774;2024-01-07T03:32:11;3.70;;;2.95;;
29774;SDS011;16676;51.202;6.774;2024-01-07T03:36:13;4.38;;;3.88;;
29774;SDS011;16676;51.202;6.774;2024-01-07T03:40:15;4.10;;;3.10;;
29774;SDS011;16676;51.202;6.774;2024-01-07T03:44:17;3.60;;;2.92;;
29774;SDS011;16676;51.202;6.774;2024-01-07T03:48:20;3.50;;;3.03;;
29774;SDS011;16676;51.202;6.774;2024-01-07T03:52:22;4.10;;;3.00;;
29774;SDS011;16676;51.202;6.774;2024-01-07T03:56:24;3.85;;;2.83;;
29774;SDS011;16676;51.202;6.774;2024-01-07T04:00:26;3.88;;;2.42;;
29774;SDS011;16676;51.202;6.774;2024-01-07T04:04:29;4.53;;;3.30;;
29774;SDS011;16676;51.202;6.774;2024-01-07T04:08:31;4.22;;;3.55;;
29774;SDS011;16676;51.202;6.774;2024-01-07T04:12:33;6.18;;;4.10;;
29774;SDS011;16676;51.202;6.774;2024-01-07T04:16:35;4.53;;;3.47;;
29774;SDS011;16676;51.202;6.774;2024-01-07T04:20:38;5.20;;;3.35;;
29774;SDS011;16676;51.202;6.774;2024-01-07T04:24:40;4.45;;;3.00;;
29774;SDS011;16676;51.202;6.774;2024-01-07T04:28:42;4.38;;;3.30;;
29774;SDS011;16676;51.202;6.774;2024-01-07T04:32:45;4.40;;;3.40;;
29774;SDS011;16676;51.202;6.774;2024-01-07T04:36:48;4.72;;;3.40;;
29774;SDS011;16676;51.202;6.774;2024-01-07T04:40:50;4.65;;;3.03;;
29774;SDS011;16676;51.202;6.774;2024-01-07T04:44:52;4.07;;;3.10;;
29774;SDS011;16676;51.202;6.774;2024-01-07T04:48:54;3.63;;;2.92;;
29774;SDS011;16676;51.202;6.774;2024-01-07T04:52:57;3.97;;;3.13;;
29774;SDS011;16676;51.202;6.774;2024-01-07T04:56:59;4.97;;;2.72;;
29774;SDS011;16676;51.202;6.774;2024-01-07T05:01:01;3.45;;;2.90;;
29774;SDS011;16676;51.202;6.774;2024-01-07T05:05:03;4.47;;;3.05;;
29774;SDS011;16676;51.202;6.774;2024-01-07T05:09:06;3.55;;;2.70;;
29774;SDS011;16676;51.202;6.774;2024-01-07T05:13:09;3.20;;;2.90;;
29774;SDS011;16676;51.202;6.774;2024-01-07T05:17:11;3.90;;;3.30;;
29774;SDS011;16676;51.202;6.774;2024-01-07T05:21:13;4.20;;;3.00;;
29774;SDS011;16676;51.202;6.774;2024-01-07T05:25:16;3.78;;;2.90;;
29774;SDS011;16676;51.202;6.774;2024-01-07T05:29:18;3.90;;;2.78;;
29774;SDS011;16676;51.202;6.774;2024-01-07T05:33:20;4.75;;;3.05;;
29774;SDS011;16676;51.202;6.774;2024-01-07T05:37:21;3.38;;;2.72;;
29774;SDS011;16676;51.202;6.774;2024-01-07T05:41:25;3.45;;;2.75;;
29774;SDS011;16676;51.202;6.774;2024-01-07T05:45:27;4.15;;;3.30;;
29774;SDS011;16676;51.202;6.774;2024-01-07T05:49:29;3.88;;;2.83;;
29774;SDS011;16676;51.202;6.774;2024-01-07T05:53:30;4.28;;;3.10;;
29774;SDS011;16676;51.202;6.774;2024-01-07T05:57:34;3.53;;;2.78;;
29774;SDS011;16676;51.202;6.774;2024-01-07T06:01:36;3.78;;;3.17;;
29774;SDS011;16676;51.202;6.774;2024-01-07T06:05:38;4.38;;;2.90;;
29774;SDS011;16676;51.202;6.774;2024-01-07T06:09:40;4.07;;;3.38;;
29774;SDS011;16676;51.202;6.774;2024-01-07T06:13:43;3.38;;;2.97;;
29774;SDS011;16676;51.202;6.774;2024-01-07T06:17:45;3.60;;;2.85;;
29774;SDS011;16676;51.202;6.774;2024-01-07T06:21:49;4.20;;;3.30;;
29774;SDS011;16676;51.202;6.774;2024-01-07T06:25:51;3.92;;;2.75;;
29774;SDS011;16676;51.202;6.774;2024-01-07T06:29:54;3.90;;;3.00;;
29774;SDS011;16676;51.202;6.774;2024-01-07T06:33:56;3.92;;;3.25;;
29774;SDS011;16676;51.202;6.774;2024-01-07T06:37:58;4.00;;;3.08;;
29774;SDS011;16676;51.202;6.774;2024-01-07T06:41:59;3.90;;;3.10;;
29774;SDS011;16676;51.202;6.774;2024-01-07T06:46:03;4.07;;;3.38;;
29774;SDS011;16676;51.202;6.774;2024-01-07T06:50:05;4.20;;;3.33;;
29774;SDS011;16676;51.202;6.774;2024-01-07T06:54:07;4.07;;;3.15;;
29774;SDS011;16676;51.202;6.774;2024-01-07T06:58:09;4.28;;;3.22;;
29774;SDS011;16676;51.202;6.774;2024-01-07T07:02:12;3.80;;;3.08;;
29774;SDS011;16676;51.202;6.774;2024-01-07T07:06:14;4.18;;;3.25;;
29774;SDS011;16676;51.202;6.774;2024-01-07T07:10:16;5.57;;;3.00;;
29774;SDS011;16676;51.202;6.774;2024-01-07T07:14:18;3.70;;;3.05;;
29774;SDS011;16676;51.202;6.774;2024-01-07T07:18:22;5.43;;;3.53;;
29774;SDS011;16676;51.202;6.774;2024-01-07T07:22:24;3.80;;;3.33;;
29774;SDS011;16676;51.202;6.774;2024-01-07T07:26:26;3.83;;;3.10;;
29774;SDS011;16676;51.202;6.774;2024-01-07T07:30:28;3.97;;;3.38;;
29774;SDS011;16676;51.202;6.774;2024-01-07T07:34:31;3.63;;;3.00;;
29774;SDS011;16676;51.202;6.774;2024-01-07T07:38:34;3.90;;;3.00;;
29774;SDS011;16676;51.202;6.774;2024-01-07T07:42:35;6.68;;;3.08;;
29774;SDS011;16676;51.202;6.774;2024-01-07T07:46:37;17.77;;;11.98;;
29774;SDS011;16676;51.202;6.774;2024-01-07T07:50:41;16.33;;;11.75;;
29774;SDS011;16676;51.202;6.774;2024-01-07T07:54:42;15.63;;;10.77;;
29774;SDS011;16676;51.202;6.774;2024-01-07T07:58:45;12.88;;;10.40;;
29774;SDS011;16676;51.202;6.774;2024-01-07T08:02:47;15.93;;;10.73;;
29774;SDS011;16676;51.202;6.774;2024-01-07T08:06:50;17.27;;;11.70;;
29774;SDS011;16676;51.202;6.774;2024-01-07T08:10:52;18.10;;;11.07;;
29774;SDS011;16676;51.202;6.774;2024-01-07T08:14:55;14.93;;;10.95;;
29774;SDS011;16676;51.202;6.774;2024-01-07T08:18:57;15.45;;;11.02;;
29774;SDS011;16676;51.202;6.774;2024-01-07T08:23:00;14.80;;;9.93;;
29774;SDS011;16676;51.202;6.774;2024-01-07T08:27:02;15.73;;;10.30;;
29774;SDS011;16676;51.202;6.774;2024-01-07T08:31:05;14.32;;;8.60;;
29774;SDS011;16676;51.202;6.774;2024-01-07T08:35:07;13.38;;;8.52;;
29774;SDS011;16676;51.202;6.774;2024-01-07T08:39:11;16.75;;;8.40;;
29774;SDS011;16676;51.202;6.774;2024-01-07T08:43:15;15.35;;;7.90;;
29774;SDS011;16676;51.202;6.774;2024-01-07T08:47:17;14.35;;;8.32;;
29774;SDS011;16676;51.202;6.774;2024-01-07T08:51:19;10.90;;;7.15;;
29774;SDS011;16676;51.202;6.774;2024-01-07T08:55:23;10.68;;;6.90;;
29774;SDS011;16676;51.202;6.774;2024-01-07T08:59:25;10.25;;;6.78;;
29774;SDS011;16676;51.202;6.774;2024-01-07T09:03:26;11.38;;;6.70;;
29774;SDS011;16676;51.202;6.774;2024-01-07T09:07:28;11.80;;;6.18;;
29774;SDS011;16676;51.202;6.774;2024-01-07T09:11:32;11.23;;;7.13;;
29774;SDS011;16676;51.202;6.774;2024-01-07T09:15:34;8.95;;;5.75;;
29774;SDS011;16676;51.202;6.774;2024-01-07T09:19:36;9.73;;;6.30;;
29774;SDS011;16676;51.202;6.774;2024-01-07T09:23:38;10.18;;;5.63;;
29774;SDS011;16676;51.202;6.774;2024-01-07T09:27:42;9.88;;;5.82;;
29774;SDS011;16676;51.202;6.774;2024-01-07T09:31:44;7.50;;;5.13;;
29774;SDS011;16676;51.202;6.774;2024-01-07T09:35:46;8.07;;;5.10;;
29774;SDS011;16676;51.202;6.774;2024-01-07T09:39:48;9.23;;;5.15;;
29774;SDS011;16676;51.202;6.774;2024-01-07T09:43:52;8.23;;;5.10;;
29774;SDS011;16676;51.202;6.774;2024-01-07T09:47:54;9.20;;;4.78;;
29774;SDS011;16676;51.202;6.774;2024-01-07T09:51:57;8.07;;;4.57;;
29774;SDS011;16676;51.202;6.774;2024-01-07T09:56:04;8.57;;;4.43;;
29774;SDS011;16676;51.202;6.774;2024-01-07T10:00:14;7.68;;;4.72;;
29774;SDS011;16676;51.202;6.774;2024-01-07T10:04:17;13.38;;;4.55;;
29774;SDS011;16676;51.202;6.774;2024-01-07T10:08:19;8.27;;;4.53;;
29774;SDS011;16676;51.202;6.774;2024-01-07T10:12:22;8.73;;;4.68;;
29774;SDS011;16676;51.202;6.774;2024-01-07T10:16:25;8.80;;;3.90;;
29774;SDS011;16676;51.202;6.774;2024-01-07T10:20:27;10.85;;;4.40;;
29774;SDS011;16676;51.202;6.774;2024-01-07T10:24:36;7.07;;;3.75;;
29774;SDS011;16676;51.202;6.774;2024-01-07T10:28:39;8.25;;;4.47;;
29774;SDS011;16676;51.202;6.774;2024-01-07T10:32:45;5.53;;;3.83;;
29774;SDS011;16676;51.202;6.774;2024-01-07T10:36:47;11.57;;;4.07;;
29774;SDS011;16676;51.202;6.774;2024-01-07T10:40:50;9.85;;;4.55;;
29774;SDS011;16676;51.202;6.774;2024-01-07T10:44:53;14.15;;;4.57;;
29774;SDS011;16676;51.202;6.774;2024-01-07T10:48:58;8.43;;;4.22;;
29774;SDS011;16676;51.202;6.774;2024-01-07T10:53:03;11.32;;;4.70;;
29774;SDS011;16676;51.202;6.774;2024-01-07T10:57:09;7.85;;;3.75;;
29774;SDS011;16676;51.202;6.774;2024-01-07T11:01:18;9.65;;;4.40;;
29774;SDS011;16676;51.202;6.774;2024-01-07T11:05:25;9.00;;;4.50;;
29774;SDS011;16676;51.202;6.774;2024-01-07T11:09:33;12.75;;;4.43;;
29774;SDS011;16676;51.202;6.774;2024-01-07T11:13:39;10.75;;;4.95;;
29774;SDS011;16676;51.202;6.774;2024-01-07T11:17:41;7.35;;;3.95;;
29774;SDS011;16676;51.202;6.774;2024-01-07T11:21:47;10.00;;;5.40;;
29774;SDS011;16676;51.202;6.774;2024-01-07T11:25:49;8.52;;;4.65;;
29774;SDS011;16676;51.202;6.774;2024-01-07T11:29:54;9.05;;;5.32;;
29774;SDS011;16676;51.202;6.774;2024-01-07T11:33:56;10.55;;;6.10;;
29774;SDS011;16676;51.202;6.774;2024-01-07T11:38:00;10.32;;;5.53;;
29774;SDS011;16676;51.202;6.774;2024-01-07T11:42:03;20.17;;;6.10;;
29774;SDS011;16676;51.202;6.774;2024-01-07T11:46:05;10.65;;;5.43;;
29774;SDS011;16676;51.202;6.774;2024-01-07T11:50:07;14.93;;;5.88;;
29774;SDS011;16676;51.202;6.774;2024-01-07T11:54:10;12.35;;;5.90;;
29774;SDS011;16676;51.202;6.774;2024-01-07T11:58:12;17.40;;;5.80;;
29774;SDS011;16676;51.202;6.774;2024-01-07T12:02:14;12.77;;;6.25;;
29774;SDS011;16676;51.202;6.774;2024-01-07T12:06:18;15.48;;;6.63;;
29774;SDS011;16676;51.202;6.774;2024-01-07T12:10:22;11.13;;;5.70;;
29774;SDS011;16676;51.202;6.774;2024-01-07T12:14:24;9.00;;;4.88;;
29774;SDS011;16676;51.202;6.774;2024-01-07T12:18:27;9.85;;;5.75;;
29774;SDS011;16676;51.202;6.774;2024-01-07T12:22:29;9.88;;;5.45;;
29774;SDS011;16676;51.202;6.774;2024-01-07T12:26:32;12.35;;;5.22;;
29774;SDS011;16676;51.202;6.774;2024-01-07T12:30:34;12.27;;;5.38;;
29774;SDS011;16676;51.202;6.774;2024-01-07T12:34:36;8.82;;;5.15;;
29774;SDS011;16676;51.202;6.774;2024-01-07T12:38:38;9.57;;;5.43;;
29774;SDS011;16676;51.202;6.774;2024-01-07T12:42:42;8.80;;;4.95;;
29774;SDS011;16676;51.202;6.774;2024-01-07T12:46:46;10.88;;;5.03;;
29774;SDS011;16676;51.202;6.774;2024-01-07T12:50:48;9.75;;;4.20;;
29774;SDS011;16676;51.202;6.774;2024-01-07T12:54:50;9.00;;;4.82;;
29774;SDS011;16676;51.202;6.774;2024-01-07T12:58:53;7.57;;;4.35;;
29774;SDS011;16676;51.202;6.774;2024-01-07T13:02:55;7.70;;;4.47;;
29774;SDS011;16676;51.202;6.774;2024-01-07T13:06:57;8.27;;;4.45;;
29774;SDS011;16676;51.202;6.774;2024-01-07T13:10:59;10.50;;;4.55;;
29774;SDS011;16676;51.202;6.774;2024-01-07T13:15:02;9.57;;;4.60;;
29774;SDS011;16676;51.202;6.774;2024-01-07T13:19:05;11.57;;;4.65;;
29774;SDS011;16676;51.202;6.774;2024-01-07T13:23:09;8.45;;;4.10;;
29774;SDS011;16676;51.202;6.774;2024-01-07T13:27:11;13.93;;;4.07;;
29774;SDS011;16676;51.202;6.774;2024-01-07T13:31:14;8.35;;;4.93;;
29774;SDS011;16676;51.202;6.774;2024-01-07T13:35:16;11.85;;;4.65;;
29774;SDS011;16676;51.202;6.774;2024-01-07T13:39:18;7.35;;;4.60;;
29774;SDS011;16676;51.202;6.774;2024-01-07T13:43:21;14.25;;;4.95;;
29774;SDS011;16676;51.202;6.774;2024-01-07T13:47:27;16.17;;;4.15;;
29774;SDS011;16676;51.202;6.774;2024-01-07T13:51:29;8.05;;;4.07;;
29774;SDS011;16676;51.202;6.774;2024-01-07T13:55:31;12.57;;;4.30;;
29774;SDS011;16676;51.202;6.774;2024-01-07T13:59:32;8.35;;;4.05;;
29774;SDS011;16676;51.202;6.774;2024-01-07T14:03:36;11.10;;;4.60;;
29774;SDS011;16676;51.202;6.774;2024-01-07T14:07:38;8.05;;;4.07;;
29774;SDS011;16676;51.202;6.774;2024-01-07T14:11:40;6.50;;;3.85;;
29774;SDS011;16676;51.202;6.774;2024-01-07T14:15:42;8.68;;;4.10;;
29774;SDS011;16676;51.202;6.774;2024-01-07T14:19:45;9.93;;;4.05;;
29774;SDS011;16676;51.202;6.774;2024-01-07T14:23:48;11.45;;;4.47;;
29774;SDS011;16676;51.202;6.774;2024-01-07T14:27:50;7.40;;;3.63;;
29774;SDS011;16676;51.202;6.774;2024-01-07T14:31:52;7.15;;;3.85;;
29774;SDS011;16676;51.202;6.774;2024-01-07T14:35:55;7.07;;;3.60;;
29774;SDS011;16676;51.202;6.774;2024-01-07T14:39:57;7.75;;;3.90;;
29774;SDS011;16676;51.202;6.774;2024-01-07T14:43:59;9.13;;;3.50;;
29774;SDS011;16676;51.202;6.774;2024-01-07T14:48:01;10.18;;;3.75;;
29774;SDS011;16676;51.202;6.774;2024-01-07T14:52:04;12.75;;;3.70;;
29774;SDS011;16676;51.202;6.774;2024-01-07T14:56:06;9.27;;;3.95;;
29774;SDS011;16676;51.202;6.774;2024-01-07T15:00:09;8.38;;;3.45;;
29774;SDS011;16676;51.202;6.774;2024-01-07T15:04:11;13.90;;;3.83;;
29774;SDS011;16676;51.202;6.774;2024-01-07T15:08:14;12.85;;;3.75;;
29774;SDS011;16676;51.202;6.774;2024-01-07T15:12:16;11.80;;;3.50;;
29774;SDS011;16676;51.202;6.774;2024-01-07T15:16:19;5.80;;;3.50;;
29774;SDS011;16676;51.202;6.774;2024-01-07T15:20:21;11.50;;;4.13;;
29774;SDS011;16676;51.202;6.774;2024-01-07T15:24:24;9.38;;;3.55;;
29774;SDS011;16676;51.202;6.774;2024-01-07T15:28:26;7.53;;;3.15;;
29774;SDS011;16676;51.202;6.774;2024-01-07T15:32:29;8.23;;;3.72;;
29774;SDS011;16676;51.202;6.774;2024-01-07T15:36:31;10.52;;;3.78;;
29774;SDS011;16676;51.202;6.774;2024-01-07T15:40:35;10.52;;;3.50;;
29774;SDS011;16676;51.202;6.774;2024-01-07T15:44:36;8.88;;;3.40;;
29774;SDS011;16676;51.202;6.774;2024-01-07T15:48:38;9.20;;;3.45;;
29774;SDS011;16676;51.202;6.774;2024-01-07T15:52:41;7.97;;;3.15;;
29774;SDS011;16676;51.202;6.774;2024-01-07T15:56:47;14.20;;;3.58;;
29774;SDS011;16676;51.202;6.774;2024-01-07T16:00:49;6.97;;;3.17;;
29774;SDS011;16676;51.202;6.774;2024-01-07T16:04:51;8.05;;;3.20;;
29774;SDS011;16676;51.202;6.774;2024-01-07T16:08:53;5.43;;;3.20;;
29774;SDS011;16676;51.202;6.774;2024-01-07T16:12:57;7.97;;;3.13;;
29774;SDS011;16676;51.202;6.774;2024-01-07T16:16:59;6.75;;;3.00;;
29774;SDS011;16676;51.202;6.774;2024-01-07T16:21:02;8.88;;;2.95;;
29774;SDS011;16676;51.202;6.774;2024-01-07T16:25:04;5.95;;;2.90;;
29774;SDS011;16676;51.202;6.774;2024-01-07T16:29:08;7.25;;;3.10;;
29774;SDS011;16676;51.202;6.774;2024-01-07T16:33:10;7.43;;;3.33;;
29774;SDS011;16676;51.202;6.774;2024-01-07T16:37:12;8.60;;;3.30;;
29774;SDS011;16676;51.202;6.774;2024-01-07T16:41:14;6.65;;;3.35;;
29774;SDS011;16676;51.202;6.774;2024-01-07T16:45:18;5.60;;;2.88;;
29774;SDS011;16676;51.202;6.774;2024-01-07T16:49:20;6.63;;;3.22;;
29774;SDS011;16676;51.202;6.774;2024-01-07T16:53:22;7.18;;;2.80;;
29774;SDS011;16676;51.202;6.774;2024-01-07T16:57:24;4.65;;;2.85;;
29774;SDS011;16676;51.202;6.774;2024-01-07T17:01:27;4.95;;;2.92;;
29774;SDS011;16676;51.202;6.774;2024-01-07T17:05:29;4.38;;;2.60;;
29774;SDS011;16676;51.202;6.774;2024-01-07T17:09:31;6.05;;;2.83;;
29774;SDS011;16676;51.202;6.774;2024-01-07T17:13:33;8.55;;;3.35;;
29774;SDS011;16676;51.202;6.774;2024-01-07T17:17:38;4.78;;;2.85;;
29774;SDS011;16676;51.202;6.774;2024-01-07T17:21:40;4.68;;;2.63;;
29774;SDS011;16676;51.202;6.774;2024-01-07T17:25:42;5.18;;;2.67;;
29774;SDS011;16676;51.202;6.774;2024-01-07T17:29:44;6.18;;;2.78;;
29774;SDS011;16676;51.202;6.774;2024-01-07T17:33:48;6.20;;;2.80;;
29774;SDS011;16676;51.202;6.774;2024-01-07T17:37:50;3.20;;;2.38;;
29774;SDS011;16676;51.202;6.774;2024-01-07T17:41:52;5.07;;;2.53;;
29774;SDS011;16676;51.202;6.774;2024-01-07T17:45:54;4.47;;;2.60;;
29774;SDS011;16676;51.202;6.774;2024-01-07T17:49:57;6.22;;;2.72;;
29774;SDS011;16676;51.202;6.774;2024-01-07T17:53:59;7.15;;;2.75;;
29774;SDS011;16676;51.202;6.774;2024-01-07T17:58:01;3.22;;;2.38;;
29774;SDS011;16676;51.202;6.774;2024-01-07T18:02:03;4.82;;;2.53;;
29774;SDS011;16676;51.202;6.774;2024-01-07T18:06:08;6.95;;;2.63;;
29774;SDS011;16676;51.202;6.774;2024-01-07T18:10:10;4.53;;;2.55;;
29774;SDS011;16676;51.202;6.774;2024-01-07T18:14:12;5.63;;;2.60;;
29774;SDS011;16676;51.202;6.774;2024-01-07T18:18:16;5.93;;;2.70;;
29774;SDS011;16676;51.202;6.774;2024-01-07T18:22:19;10.93;;;2.47;;
29774;SDS011;16676;51.202;6.774;2024-01-07T18:26:21;10.38;;;3.15;;
29774;SDS011;16676;51.202;6.774;2024-01-07T18:30:24;8.82;;;3.22;;
29774;SDS011;16676;51.202;6.774;2024-01-07T18:34:26;13.98;;;4.22;;
29774;SDS011;16676;51.202;6.774;2024-01-07T18:38:30;14.52;;;3.60;;
29774;SDS011;16676;51.202;6.774;2024-01-07T18:42:31;16.70;;;4.63;;
29774;SDS011;16676;51.202;6.774;2024-01-07T18:46:33;11.70;;;4.30;;
29774;SDS011;16676;51.202;6.774;2024-01-07T18:50:36;19.55;;;5.13;;
29774;SDS011;16676;51.202;6.774;2024-01-07T18:54:39;12.90;;;4.28;;
29774;SDS011;16676;51.202;6.774;2024-01-07T18:58:42;12.10;;;5.05;;
29774;SDS011;16676;51.202;6.774;2024-01-07T19:02:44;12.10;;;3.80;;
29774;SDS011;16676;51.202;6.774;2024-01-07T19:06:46;9.13;;;4.40;;
29774;SDS011;16676;51.202;6.774;2024-01-07T19:10:49;13.65;;;4.43;;
29774;SDS011;16676;51.202;6.774;2024-01-07T19:14:51;8.43;;;3.95;;
29774;SDS011;16676;51.202;6.774;2024-01-07T19:18:53;10.27;;;4.88;;
29774;SDS011;16676;51.202;6.774;2024-01-07T19:22:55;9.23;;;4.20;;
29774;SDS011;16676;51.202;6.774;2024-01-07T19:26:58;10.43;;;4.57;;
29774;SDS011;16676;51.202;6.774;2024-01-07T19:31:00;10.98;;;4.15;;
29774;SDS011;16676;51.202;6.774;2024-01-07T19:35:04;9.40;;;4.18;;
29774;SDS011;16676;51.202;6.774;2024-01-07T19:39:06;11.30;;;4.30;;
29774;SDS011;16676;51.202;6.774;2024-01-07T19:43:10;9.45;;;4.20;;
29774;SDS011;16676;51.202;6.774;2024-01-07T19:47:12;7.60;;;3.67;;
29774;SDS011;16676;51.202;6.774;2024-01-07T19:51:14;10.57;;;3.67;;
29774;SDS011;16676;51.202;6.774;2024-01-07T19:55:16;7.65;;;3.67;;
29774;SDS011;16676;51.202;6.774;2024-01-07T19:59:19;7.70;;;3.63;;
29774;SDS011;16676;51.202;6.774;2024-01-07T20:03:24;6.68;;;3.63;;
29774;SDS011;16676;51.202;6.774;2024-01-07T20:07:26;7.38;;;3.80;;
29774;SDS011;16676;51.202;6.774;2024-01-07T20:11:29;8.93;;;3.88;;
29774;SDS011;16676;51.202;6.774;2024-01-07T20:15:33;6.53;;;3.58;;
29774;SDS011;16676;51.202;6.774;2024-01-07T20:19:36;7.65;;;3.25;;
29774;SDS011;16676;51.202;6.774;2024-01-07T20:23:40;7.75;;;3.40;;
29774;SDS011;16676;51.202;6.774;2024-01-07T20:27:41;7.43;;;3.40;;
29774;SDS011;16676;51.202;6.774;2024-01-07T20:31:45;5.80;;;3.17;;
29774;SDS011;16676;51.202;6.774;2024-01-07T20:35:47;6.22;;;3.13;;
29774;SDS011;16676;51.202;6.774;2024-01-07T20:39:50;5.50;;;2.75;;
29774;SDS011;16676;51.202;6.774;2024-01-07T20:43:52;8.55;;;3.53;;
29774;SDS011;16676;51.202;6.774;2024-01-07T20:47:55;7.93;;;2.92;;
29774;SDS011;16676;51.202;6.774;2024-01-07T20:51:57;5.93;;;3.30;;
29774;SDS011;16676;51.202;6.774;2024-01-07T20:56:00;6.63;;;3.05;;
29774;SDS011;16676;51.202;6.774;2024-01-07T21:00:03;4.97;;;3.70;;
29774;SDS011;16676;51.202;6.774;2024-01-07T21:04:07;8.13;;;3.80;;
29774;SDS011;16676;51.202;6.774;2024-01-07T21:08:09;5.65;;;3.10;;
29774;SDS011;16676;51.202;6.774;2024-01-07T21:12:11;10.18;;;3.42;;
29774;SDS011;16676;51.202;6.774;2024-01-07T21:16:13;7.55;;;2.83;;
29774;SDS011;16676;51.202;6.774;2024-01-07T21:20:16;5.43;;;2.65;;
29774;SDS011;16676;51.202;6.774;2024-01-07T21:24:18;4.93;;;2.63;;
29774;SDS011;16676;51.202;6.774;2024-01-07T21:28:20;3.83;;;2.20;;
29774;SDS011;16676;51.202;6.774;2024-01-07T21:32:23;6.10;;;2.70;;
29774;SDS011;16676;51.202;6.774;2024-01-07T21:36:27;6.85;;;2.60;;
29774;SDS011;16676;51.202;6.774;2024-01-07T21:40:29;5.82;;;3.00;;
29774;SDS011;16676;51.202;6.774;2024-01-07T21:44:31;3.33;;;2.20;;
29774;SDS011;16676;51.202;6.774;2024-01-07T21:48:33;4.32;;;2.35;;
29774;SDS011;16676;51.202;6.774;2024-01-07T21:52:37;5.18;;;2.20;;
29774;SDS011;16676;51.202;6.774;2024-01-07T21:56:39;4.97;;;2.03;;
29774;SDS011;16676;51.202;6.774;2024-01-07T22:00:42;4.63;;;2.08;;
29774;SDS011;16676;51.202;6.774;2024-01-07T22:04:44;6.28;;;2.17;;
29774;SDS011;16676;51.202;6.774;2024-01-07T22:08:48;3.58;;;2.38;;
29774;SDS011;16676;51.202;6.774;2024-01-07T22:12:50;6.95;;;2.20;;
29774;SDS011;16676;51.202;6.774;2024-01-07T22:16:52;4.43;;;2.17;;
29774;SDS011;16676;51.202;6.774;2024-01-07T22:20:54;3.53;;;2.30;;
29774;SDS011;16676;51.202;6.774;2024-01-07T22:24:57;5.35;;;2.10;;
29774;SDS011;16676;51.202;6.774;2024-01-07T22:28:59;4.38;;;2.60;;
29774;SDS011;16676;51.202;6.774;2024-01-07T22:33:01;3.25;;;2.03;;
29774;SDS011;16676;51.202;6.774;2024-01-07T22:37:03;5.38;;;2.25;;
29774;SDS011;16676;51.202;6.774;2024-01-07T22:41:06;4.32;;;1.98;;
29774;SDS011;16676;51.202;6.774;2024-01-07T22:45:09;3.75;;;2.15;;
29774;SDS011;16676;51.202;6.774;2024-01-07T22:49:11;3.83;;;2.30;;
29774;SDS011;16676;51.202;6.774;2024-01-07T22:53:13;3.00;;;2.15;;
29774;SDS011;16676;51.202;6.774;2024-01-07T22:57:16;3.90;;;2.17;;
29774;SDS011;16676;51.202;6.774;2024-01-07T23:01:25;4.88;;;2.20;;
29774;SDS011;16676;51.202;6.774;2024-01-07T23:05:28;3.58;;;2.03;;
29774;SDS011;16676;51.202;6.774;2024-01-07T23:09:30;3.97;;;2.25;;
29774;SDS011;16676;51.202;6.774;2024-01-07T23:13:33;2.28;;;1.80;;
29774;SDS011;16676;51.202;6.774;2024-01-07T23:17:35;3.58;;;2.05;;
29774;SDS011;16676;51.202;6.774;2024-01-07T23:21:37;3.33;;;1.90;;
29774;SDS011;16676;51.202;6.774;2024-01-07T23:25:39;3.17;;;1.85;;
29774;SDS011;16676;51.202;6.774;2024-01-07T23:29:42;3.38;;;2.10;;
29774;SDS011;16676;51.202;6.774;2024-01-07T23:33:44;2.85;;;1.60;;
29774;SDS011;16676;51.202;6.774;2024-01-07T23:37:46;3.45;;;1.80;;
29774;SDS011;16676;51.202;6.774;2024-01-07T23:41:48;4.45;;;1.85;;
29774;SDS011;16676;51.202;6.774;2024-01-07T23:45:51;3.22;;;1.70;;
29774;SDS011;16676;51.202;6.774;2024-01-07T23:49:53;3.72;;;1.80;;
29774;SDS011;16676;51.202;6.774;2024-01-07T23:53:55;3.97;;;1.83;;
29774;SDS011;16676;51.202;6.774;2024-01-07T23:57:57;3.63;;;1.60;;
